sensor_id;sensor_type;location;lat;lon;timestamp;P1;durP1;ratioP1;P2;durP2;ratioP2
665;SDS011;315;48.738;9.126;2024-01-07T00:00:21;20.20;;;14.70;;
665;SDS011;315;48.738;9.126;2024-01-07T00:02:47;21.43;;;15.73;;
665;SDS011;315;48.738;9.126;2024-01-07T00:05:21;19.23;;;14.70;;
665;SDS011;315;48.738;9.126;2024-01-07T00:07:47;20.90;;;14.77;;
665;SDS011;315;48.738;9.126;2024-01-07T00:10:14;20.23;;;15.13;;
665;SDS011;315;48.738;9.126;2024-01-07T00:12:40;19.83;;;14.93;;
665;SDS011;315;48.738;9.126;2024-01-07T00:15:05;16.70;;;12.90;;
665;SDS011;315;48.738;9.126;2024-01-07T00:17:31;18.30;;;13.03;;
665;SDS011;315;48.738;9.126;2024-01-07T00:19:57;20.73;;;14.27;;
665;SDS011;315;48.738;9.126;2024-01-07T00:22:22;19.97;;;13.83;;
665;SDS011;315;48.738;9.126;2024-01-07T00:24:48;16.83;;;13.40;;
665;SDS011;315;48.738;9.126;2024-01-07T00:27:13;15.37;;;12.73;;
665;SDS011;315;48.738;9.126;2024-01-07T00:29:39;19.23;;;14.93;;
665;SDS011;315;48.738;9.126;2024-01-07T00:32:04;20.77;;;15.57;;
665;SDS011;315;48.738;9.126;2024-01-07T00:34:30;18.20;;;13.73;;
665;SDS011;315;48.738;9.126;2024-01-07T00:36:55;15.87;;;13.00;;
665;SDS011;315;48.738;9.126;2024-01-07T00:39:21;19.37;;;13.63;;
665;SDS011;315;48.738;9.126;2024-01-07T00:41:46;18.50;;;14.33;;
665;SDS011;315;48.738;9.126;2024-01-07T00:44:12;19.77;;;14.63;;
665;SDS011;315;48.738;9.126;2024-01-07T00:46:38;18.87;;;14.63;;
665;SDS011;315;48.738;9.126;2024-01-07T00:49:03;21.37;;;14.80;;
665;SDS011;315;48.738;9.126;2024-01-07T00:51:29;19.60;;;14.80;;
665;SDS011;315;48.738;9.126;2024-01-07T00:53:54;19.53;;;14.67;;
665;SDS011;315;48.738;9.126;2024-01-07T00:56:20;19.50;;;14.50;;
665;SDS011;315;48.738;9.126;2024-01-07T00:58:45;17.20;;;13.73;;
665;SDS011;315;48.738;9.126;2024-01-07T01:01:11;21.00;;;14.10;;
665;SDS011;315;48.738;9.126;2024-01-07T01:03:36;17.60;;;13.73;;
665;SDS011;315;48.738;9.126;2024-01-07T01:06:02;18.40;;;13.67;;
665;SDS011;315;48.738;9.126;2024-01-07T01:08:28;19.70;;;13.80;;
665;SDS011;315;48.738;9.126;2024-01-07T01:10:54;18.10;;;13.67;;
665;SDS011;315;48.738;9.126;2024-01-07T01:13:19;19.67;;;14.83;;
665;SDS011;315;48.738;9.126;2024-01-07T01:15:45;21.33;;;16.13;;
665;SDS011;315;48.738;9.126;2024-01-07T01:18:10;20.97;;;14.40;;
665;SDS011;315;48.738;9.126;2024-01-07T01:20:36;20.13;;;14.60;;
665;SDS011;315;48.738;9.126;2024-01-07T01:23:01;22.00;;;14.33;;
665;SDS011;315;48.738;9.126;2024-01-07T01:25:27;21.80;;;15.60;;
665;SDS011;315;48.738;9.126;2024-01-07T01:27:54;22.17;;;14.67;;
665;SDS011;315;48.738;9.126;2024-01-07T01:30:20;23.20;;;16.33;;
665;SDS011;315;48.738;9.126;2024-01-07T01:32:46;24.13;;;17.30;;
665;SDS011;315;48.738;9.126;2024-01-07T01:35:11;19.97;;;14.40;;
665;SDS011;315;48.738;9.126;2024-01-07T01:37:38;26.93;;;15.90;;
665;SDS011;315;48.738;9.126;2024-01-07T01:40:03;25.90;;;16.40;;
665;SDS011;315;48.738;9.126;2024-01-07T01:42:29;25.03;;;14.83;;
665;SDS011;315;48.738;9.126;2024-01-07T01:44:55;24.60;;;16.13;;
665;SDS011;315;48.738;9.126;2024-01-07T01:47:24;24.87;;;16.37;;
665;SDS011;315;48.738;9.126;2024-01-07T01:49:50;26.90;;;16.60;;
665;SDS011;315;48.738;9.126;2024-01-07T01:52:15;26.50;;;15.60;;
665;SDS011;315;48.738;9.126;2024-01-07T01:54:41;25.60;;;16.17;;
665;SDS011;315;48.738;9.126;2024-01-07T01:57:07;23.30;;;16.23;;
665;SDS011;315;48.738;9.126;2024-01-07T01:59:37;25.10;;;16.30;;
665;SDS011;315;48.738;9.126;2024-01-07T02:02:03;25.20;;;15.40;;
665;SDS011;315;48.738;9.126;2024-01-07T02:04:29;26.37;;;16.30;;
665;SDS011;315;48.738;9.126;2024-01-07T02:06:55;29.57;;;16.20;;
665;SDS011;315;48.738;9.126;2024-01-07T02:09:20;30.43;;;17.33;;
665;SDS011;315;48.738;9.126;2024-01-07T02:14:29;31.13;;;16.63;;
665;SDS011;315;48.738;9.126;2024-01-07T02:16:54;28.90;;;16.80;;
665;SDS011;315;48.738;9.126;2024-01-07T02:19:20;29.73;;;17.20;;
665;SDS011;315;48.738;9.126;2024-01-07T02:21:47;29.10;;;15.67;;
665;SDS011;315;48.738;9.126;2024-01-07T02:24:16;35.07;;;18.67;;
665;SDS011;315;48.738;9.126;2024-01-07T02:26:41;27.63;;;16.77;;
665;SDS011;315;48.738;9.126;2024-01-07T02:29:07;28.13;;;18.80;;
665;SDS011;315;48.738;9.126;2024-01-07T02:31:32;28.73;;;18.20;;
665;SDS011;315;48.738;9.126;2024-01-07T02:33:58;30.73;;;17.47;;
665;SDS011;315;48.738;9.126;2024-01-07T02:36:23;24.50;;;16.70;;
665;SDS011;315;48.738;9.126;2024-01-07T02:38:49;28.03;;;17.03;;
665;SDS011;315;48.738;9.126;2024-01-07T02:41:14;36.33;;;19.67;;
665;SDS011;315;48.738;9.126;2024-01-07T02:43:40;29.93;;;18.33;;
665;SDS011;315;48.738;9.126;2024-01-07T02:46:06;32.03;;;19.37;;
665;SDS011;315;48.738;9.126;2024-01-07T02:48:32;33.67;;;19.70;;
665;SDS011;315;48.738;9.126;2024-01-07T02:50:58;26.00;;;18.47;;
665;SDS011;315;48.738;9.126;2024-01-07T02:53:23;33.73;;;21.80;;
665;SDS011;315;48.738;9.126;2024-01-07T02:55:49;26.27;;;17.33;;
665;SDS011;315;48.738;9.126;2024-01-07T02:58:14;28.63;;;18.87;;
665;SDS011;315;48.738;9.126;2024-01-07T03:00:40;27.67;;;18.40;;
665;SDS011;315;48.738;9.126;2024-01-07T03:03:06;30.00;;;20.27;;
665;SDS011;315;48.738;9.126;2024-01-07T03:05:31;30.53;;;19.57;;
665;SDS011;315;48.738;9.126;2024-01-07T03:07:58;26.60;;;18.23;;
665;SDS011;315;48.738;9.126;2024-01-07T03:10:25;25.03;;;18.23;;
665;SDS011;315;48.738;9.126;2024-01-07T03:12:51;27.50;;;18.80;;
665;SDS011;315;48.738;9.126;2024-01-07T03:15:17;30.63;;;20.10;;
665;SDS011;315;48.738;9.126;2024-01-07T03:17:42;30.53;;;20.13;;
665;SDS011;315;48.738;9.126;2024-01-07T03:20:09;30.20;;;18.73;;
665;SDS011;315;48.738;9.126;2024-01-07T03:22:35;27.07;;;19.07;;
665;SDS011;315;48.738;9.126;2024-01-07T03:25:01;32.37;;;21.57;;
665;SDS011;315;48.738;9.126;2024-01-07T03:27:26;25.57;;;17.20;;
665;SDS011;315;48.738;9.126;2024-01-07T03:29:52;26.23;;;17.13;;
665;SDS011;315;48.738;9.126;2024-01-07T03:32:17;29.77;;;19.20;;
665;SDS011;315;48.738;9.126;2024-01-07T03:34:43;25.93;;;18.70;;
665;SDS011;315;48.738;9.126;2024-01-07T03:37:08;26.40;;;19.57;;
665;SDS011;315;48.738;9.126;2024-01-07T03:39:34;23.57;;;17.30;;
665;SDS011;315;48.738;9.126;2024-01-07T03:42:00;26.50;;;17.40;;
665;SDS011;315;48.738;9.126;2024-01-07T03:44:25;29.20;;;19.70;;
665;SDS011;315;48.738;9.126;2024-01-07T03:46:51;25.80;;;17.23;;
665;SDS011;315;48.738;9.126;2024-01-07T03:49:16;21.03;;;15.43;;
665;SDS011;315;48.738;9.126;2024-01-07T03:51:45;29.07;;;16.40;;
665;SDS011;315;48.738;9.126;2024-01-07T03:54:10;26.87;;;18.80;;
665;SDS011;315;48.738;9.126;2024-01-07T03:56:36;27.60;;;18.60;;
665;SDS011;315;48.738;9.126;2024-01-07T03:59:01;22.70;;;16.90;;
665;SDS011;315;48.738;9.126;2024-01-07T04:01:27;28.43;;;18.37;;
665;SDS011;315;48.738;9.126;2024-01-07T04:03:52;32.57;;;18.13;;
665;SDS011;315;48.738;9.126;2024-01-07T04:06:18;25.40;;;16.87;;
665;SDS011;315;48.738;9.126;2024-01-07T04:08:43;28.83;;;19.23;;
665;SDS011;315;48.738;9.126;2024-01-07T04:11:09;27.00;;;18.90;;
665;SDS011;315;48.738;9.126;2024-01-07T04:13:34;26.80;;;18.80;;
665;SDS011;315;48.738;9.126;2024-01-07T04:16:00;29.73;;;18.17;;
665;SDS011;315;48.738;9.126;2024-01-07T04:18:25;21.33;;;16.97;;
665;SDS011;315;48.738;9.126;2024-01-07T04:20:51;26.53;;;18.33;;
665;SDS011;315;48.738;9.126;2024-01-07T04:23:16;25.43;;;16.43;;
665;SDS011;315;48.738;9.126;2024-01-07T04:25:42;26.47;;;18.53;;
665;SDS011;315;48.738;9.126;2024-01-07T04:28:09;25.77;;;18.67;;
665;SDS011;315;48.738;9.126;2024-01-07T04:30:35;24.27;;;17.80;;
665;SDS011;315;48.738;9.126;2024-01-07T04:33:00;28.73;;;17.20;;
665;SDS011;315;48.738;9.126;2024-01-07T04:35:26;24.80;;;16.90;;
665;SDS011;315;48.738;9.126;2024-01-07T04:37:51;22.50;;;17.20;;
665;SDS011;315;48.738;9.126;2024-01-07T04:40:17;27.70;;;17.93;;
665;SDS011;315;48.738;9.126;2024-01-07T04:42:42;22.43;;;16.37;;
665;SDS011;315;48.738;9.126;2024-01-07T04:45:08;24.00;;;16.90;;
665;SDS011;315;48.738;9.126;2024-01-07T04:47:33;24.00;;;16.13;;
665;SDS011;315;48.738;9.126;2024-01-07T04:49:59;25.03;;;17.10;;
665;SDS011;315;48.738;9.126;2024-01-07T04:52:25;26.17;;;17.53;;
665;SDS011;315;48.738;9.126;2024-01-07T04:54:53;26.57;;;17.47;;
665;SDS011;315;48.738;9.126;2024-01-07T04:57:19;25.33;;;19.07;;
665;SDS011;315;48.738;9.126;2024-01-07T04:59:46;25.00;;;17.60;;
665;SDS011;315;48.738;9.126;2024-01-07T05:02:12;21.53;;;15.97;;
665;SDS011;315;48.738;9.126;2024-01-07T05:04:38;24.63;;;16.83;;
665;SDS011;315;48.738;9.126;2024-01-07T05:07:03;24.13;;;16.27;;
665;SDS011;315;48.738;9.126;2024-01-07T05:09:29;21.13;;;14.57;;
665;SDS011;315;48.738;9.126;2024-01-07T05:11:54;22.43;;;16.73;;
665;SDS011;315;48.738;9.126;2024-01-07T05:14:20;24.80;;;17.57;;
665;SDS011;315;48.738;9.126;2024-01-07T05:16:47;21.07;;;15.57;;
665;SDS011;315;48.738;9.126;2024-01-07T05:19:13;21.70;;;16.53;;
665;SDS011;315;48.738;9.126;2024-01-07T05:21:38;22.40;;;15.40;;
665;SDS011;315;48.738;9.126;2024-01-07T05:24:04;23.47;;;16.50;;
665;SDS011;315;48.738;9.126;2024-01-07T05:26:30;24.70;;;16.37;;
665;SDS011;315;48.738;9.126;2024-01-07T05:28:55;19.33;;;15.27;;
665;SDS011;315;48.738;9.126;2024-01-07T05:31:21;20.33;;;15.60;;
665;SDS011;315;48.738;9.126;2024-01-07T05:33:46;21.07;;;14.80;;
665;SDS011;315;48.738;9.126;2024-01-07T05:36:12;22.27;;;15.10;;
665;SDS011;315;48.738;9.126;2024-01-07T05:38:38;18.80;;;14.40;;
665;SDS011;315;48.738;9.126;2024-01-07T05:41:03;18.43;;;13.83;;
665;SDS011;315;48.738;9.126;2024-01-07T05:43:29;21.13;;;14.30;;
665;SDS011;315;48.738;9.126;2024-01-07T05:45:55;18.60;;;14.37;;
665;SDS011;315;48.738;9.126;2024-01-07T05:48:21;22.13;;;14.70;;
665;SDS011;315;48.738;9.126;2024-01-07T05:50:47;21.73;;;15.70;;
665;SDS011;315;48.738;9.126;2024-01-07T05:53:13;21.70;;;14.83;;
665;SDS011;315;48.738;9.126;2024-01-07T05:55:38;17.90;;;14.50;;
665;SDS011;315;48.738;9.126;2024-01-07T05:58:04;19.97;;;13.97;;
665;SDS011;315;48.738;9.126;2024-01-07T06:00:29;19.30;;;14.30;;
665;SDS011;315;48.738;9.126;2024-01-07T06:02:55;19.90;;;14.67;;
665;SDS011;315;48.738;9.126;2024-01-07T06:05:21;20.97;;;14.23;;
665;SDS011;315;48.738;9.126;2024-01-07T06:07:46;21.50;;;14.67;;
665;SDS011;315;48.738;9.126;2024-01-07T06:10:12;23.90;;;16.77;;
665;SDS011;315;48.738;9.126;2024-01-07T06:12:38;25.90;;;17.33;;
665;SDS011;315;48.738;9.126;2024-01-07T06:15:03;21.23;;;15.50;;
665;SDS011;315;48.738;9.126;2024-01-07T06:17:30;18.90;;;13.13;;
665;SDS011;315;48.738;9.126;2024-01-07T06:19:56;19.63;;;14.40;;
665;SDS011;315;48.738;9.126;2024-01-07T06:22:21;22.37;;;16.23;;
665;SDS011;315;48.738;9.126;2024-01-07T06:24:47;18.10;;;14.17;;
665;SDS011;315;48.738;9.126;2024-01-07T06:27:13;19.40;;;15.17;;
665;SDS011;315;48.738;9.126;2024-01-07T06:29:38;21.30;;;15.87;;
665;SDS011;315;48.738;9.126;2024-01-07T06:32:04;18.30;;;14.40;;
665;SDS011;315;48.738;9.126;2024-01-07T06:34:29;21.57;;;14.53;;
665;SDS011;315;48.738;9.126;2024-01-07T06:36:55;21.50;;;15.27;;
665;SDS011;315;48.738;9.126;2024-01-07T06:39:20;19.00;;;13.80;;
665;SDS011;315;48.738;9.126;2024-01-07T06:41:46;20.80;;;14.67;;
665;SDS011;315;48.738;9.126;2024-01-07T06:44:11;18.90;;;14.17;;
665;SDS011;315;48.738;9.126;2024-01-07T06:46:37;19.43;;;15.43;;
665;SDS011;315;48.738;9.126;2024-01-07T06:49:02;23.97;;;17.50;;
665;SDS011;315;48.738;9.126;2024-01-07T06:51:28;19.30;;;14.73;;
665;SDS011;315;48.738;9.126;2024-01-07T06:53:53;18.60;;;14.97;;
665;SDS011;315;48.738;9.126;2024-01-07T06:56:19;21.70;;;17.20;;
665;SDS011;315;48.738;9.126;2024-01-07T06:58:44;22.80;;;16.30;;
665;SDS011;315;48.738;9.126;2024-01-07T07:01:10;18.57;;;14.70;;
665;SDS011;315;48.738;9.126;2024-01-07T07:03:36;22.43;;;15.60;;
665;SDS011;315;48.738;9.126;2024-01-07T07:06:02;20.97;;;14.70;;
665;SDS011;315;48.738;9.126;2024-01-07T07:08:27;16.90;;;13.70;;
665;SDS011;315;48.738;9.126;2024-01-07T07:10:53;19.67;;;16.23;;
665;SDS011;315;48.738;9.126;2024-01-07T07:13:19;20.57;;;16.80;;
665;SDS011;315;48.738;9.126;2024-01-07T07:15:44;18.30;;;14.50;;
665;SDS011;315;48.738;9.126;2024-01-07T07:18:10;17.90;;;14.67;;
665;SDS011;315;48.738;9.126;2024-01-07T07:20:35;21.87;;;15.80;;
665;SDS011;315;48.738;9.126;2024-01-07T07:23:01;17.53;;;14.93;;
665;SDS011;315;48.738;9.126;2024-01-07T07:25:26;19.40;;;14.53;;
665;SDS011;315;48.738;9.126;2024-01-07T07:27:52;16.40;;;13.03;;
665;SDS011;315;48.738;9.126;2024-01-07T07:30:18;16.97;;;12.50;;
665;SDS011;315;48.738;9.126;2024-01-07T07:32:43;19.23;;;14.53;;
665;SDS011;315;48.738;9.126;2024-01-07T07:35:09;15.97;;;13.30;;
665;SDS011;315;48.738;9.126;2024-01-07T07:37:35;17.20;;;13.13;;
665;SDS011;315;48.738;9.126;2024-01-07T07:40:03;14.73;;;12.67;;
665;SDS011;315;48.738;9.126;2024-01-07T07:42:29;15.53;;;12.90;;
665;SDS011;315;48.738;9.126;2024-01-07T07:44:54;18.70;;;13.23;;
665;SDS011;315;48.738;9.126;2024-01-07T07:47:20;16.00;;;13.07;;
665;SDS011;315;48.738;9.126;2024-01-07T07:49:45;14.50;;;10.40;;
665;SDS011;315;48.738;9.126;2024-01-07T07:52:11;14.87;;;13.33;;
665;SDS011;315;48.738;9.126;2024-01-07T07:54:39;13.43;;;10.70;;
665;SDS011;315;48.738;9.126;2024-01-07T07:57:04;15.00;;;11.23;;
665;SDS011;315;48.738;9.126;2024-01-07T07:59:30;21.27;;;12.57;;
665;SDS011;315;48.738;9.126;2024-01-07T08:01:56;14.30;;;12.07;;
665;SDS011;315;48.738;9.126;2024-01-07T08:04:21;14.10;;;11.90;;
665;SDS011;315;48.738;9.126;2024-01-07T08:06:47;16.20;;;13.47;;
665;SDS011;315;48.738;9.126;2024-01-07T08:09:12;12.83;;;11.17;;
665;SDS011;315;48.738;9.126;2024-01-07T08:11:39;11.73;;;9.73;;
665;SDS011;315;48.738;9.126;2024-01-07T08:14:04;12.80;;;10.30;;
665;SDS011;315;48.738;9.126;2024-01-07T08:16:31;11.43;;;9.30;;
665;SDS011;315;48.738;9.126;2024-01-07T08:18:56;13.10;;;9.60;;
665;SDS011;315;48.738;9.126;2024-01-07T08:21:22;13.33;;;9.73;;
665;SDS011;315;48.738;9.126;2024-01-07T08:23:48;14.10;;;11.43;;
665;SDS011;315;48.738;9.126;2024-01-07T08:26:18;13.33;;;10.73;;
665;SDS011;315;48.738;9.126;2024-01-07T08:28:44;11.83;;;10.03;;
665;SDS011;315;48.738;9.126;2024-01-07T08:31:10;10.77;;;9.67;;
665;SDS011;315;48.738;9.126;2024-01-07T08:33:35;12.37;;;10.13;;
665;SDS011;315;48.738;9.126;2024-01-07T08:36:01;14.53;;;9.83;;
665;SDS011;315;48.738;9.126;2024-01-07T08:38:26;11.37;;;10.27;;
665;SDS011;315;48.738;9.126;2024-01-07T08:40:52;13.13;;;9.63;;
665;SDS011;315;48.738;9.126;2024-01-07T08:43:17;15.67;;;11.10;;
665;SDS011;315;48.738;9.126;2024-01-07T08:45:43;12.97;;;10.27;;
665;SDS011;315;48.738;9.126;2024-01-07T08:48:08;12.57;;;10.60;;
665;SDS011;315;48.738;9.126;2024-01-07T08:50:34;16.83;;;9.97;;
665;SDS011;315;48.738;9.126;2024-01-07T08:53:00;11.93;;;9.97;;
665;SDS011;315;48.738;9.126;2024-01-07T08:55:25;10.60;;;9.53;;
665;SDS011;315;48.738;9.126;2024-01-07T08:57:52;12.33;;;8.43;;
665;SDS011;315;48.738;9.126;2024-01-07T09:00:17;9.73;;;8.50;;
665;SDS011;315;48.738;9.126;2024-01-07T09:02:44;11.40;;;9.30;;
665;SDS011;315;48.738;9.126;2024-01-07T09:05:09;12.67;;;10.40;;
665;SDS011;315;48.738;9.126;2024-01-07T09:07:36;11.07;;;9.77;;
665;SDS011;315;48.738;9.126;2024-01-07T09:10:02;15.63;;;11.23;;
665;SDS011;315;48.738;9.126;2024-01-07T09:12:28;10.00;;;8.60;;
665;SDS011;315;48.738;9.126;2024-01-07T09:14:54;11.17;;;8.73;;
665;SDS011;315;48.738;9.126;2024-01-07T09:17:19;11.83;;;9.70;;
665;SDS011;315;48.738;9.126;2024-01-07T09:19:44;10.87;;;9.47;;
665;SDS011;315;48.738;9.126;2024-01-07T09:22:10;12.80;;;9.37;;
665;SDS011;315;48.738;9.126;2024-01-07T09:24:36;11.70;;;9.40;;
665;SDS011;315;48.738;9.126;2024-01-07T09:27:02;8.40;;;7.50;;
665;SDS011;315;48.738;9.126;2024-01-07T09:29:28;11.70;;;7.50;;
665;SDS011;315;48.738;9.126;2024-01-07T09:31:53;8.87;;;7.53;;
665;SDS011;315;48.738;9.126;2024-01-07T09:34:19;8.80;;;6.70;;
665;SDS011;315;48.738;9.126;2024-01-07T09:36:44;8.37;;;6.30;;
665;SDS011;315;48.738;9.126;2024-01-07T09:39:10;6.83;;;6.07;;
665;SDS011;315;48.738;9.126;2024-01-07T09:41:35;8.10;;;6.57;;
665;SDS011;315;48.738;9.126;2024-01-07T09:44:01;6.90;;;5.97;;
665;SDS011;315;48.738;9.126;2024-01-07T09:46:28;8.77;;;6.03;;
665;SDS011;315;48.738;9.126;2024-01-07T09:48:55;6.57;;;5.50;;
665;SDS011;315;48.738;9.126;2024-01-07T09:51:21;5.80;;;5.10;;
665;SDS011;315;48.738;9.126;2024-01-07T09:53:48;7.93;;;5.73;;
665;SDS011;315;48.738;9.126;2024-01-07T09:56:20;6.37;;;5.57;;
665;SDS011;315;48.738;9.126;2024-01-07T09:58:50;7.23;;;5.93;;
665;SDS011;315;48.738;9.126;2024-01-07T10:01:19;5.90;;;5.27;;
665;SDS011;315;48.738;9.126;2024-01-07T10:03:44;7.23;;;5.53;;
665;SDS011;315;48.738;9.126;2024-01-07T10:06:10;6.40;;;4.90;;
665;SDS011;315;48.738;9.126;2024-01-07T10:08:36;6.73;;;5.20;;
665;SDS011;315;48.738;9.126;2024-01-07T10:11:02;7.37;;;6.50;;
665;SDS011;315;48.738;9.126;2024-01-07T10:13:29;7.33;;;6.63;;
665;SDS011;315;48.738;9.126;2024-01-07T10:15:56;9.10;;;6.50;;
665;SDS011;315;48.738;9.126;2024-01-07T10:18:21;10.23;;;7.37;;
665;SDS011;315;48.738;9.126;2024-01-07T10:20:47;8.50;;;6.40;;
665;SDS011;315;48.738;9.126;2024-01-07T10:23:17;9.63;;;7.07;;
665;SDS011;315;48.738;9.126;2024-01-07T10:25:44;7.90;;;6.53;;
665;SDS011;315;48.738;9.126;2024-01-07T10:28:09;8.20;;;7.13;;
665;SDS011;315;48.738;9.126;2024-01-07T10:30:38;8.30;;;6.60;;
665;SDS011;315;48.738;9.126;2024-01-07T10:33:05;9.40;;;7.70;;
665;SDS011;315;48.738;9.126;2024-01-07T10:35:32;12.80;;;6.90;;
665;SDS011;315;48.738;9.126;2024-01-07T10:37:59;8.43;;;6.97;;
665;SDS011;315;48.738;9.126;2024-01-07T10:40:26;11.70;;;7.60;;
665;SDS011;315;48.738;9.126;2024-01-07T10:42:54;9.47;;;7.60;;
665;SDS011;315;48.738;9.126;2024-01-07T10:45:21;7.63;;;6.83;;
665;SDS011;315;48.738;9.126;2024-01-07T10:47:50;8.60;;;7.70;;
665;SDS011;315;48.738;9.126;2024-01-07T10:50:19;9.63;;;6.80;;
665;SDS011;315;48.738;9.126;2024-01-07T10:52:48;7.60;;;6.90;;
665;SDS011;315;48.738;9.126;2024-01-07T10:55:17;10.07;;;7.73;;
665;SDS011;315;48.738;9.126;2024-01-07T10:57:44;6.80;;;5.83;;
665;SDS011;315;48.738;9.126;2024-01-07T11:00:14;9.27;;;7.53;;
665;SDS011;315;48.738;9.126;2024-01-07T11:02:51;8.60;;;7.23;;
665;SDS011;315;48.738;9.126;2024-01-07T11:08:03;9.83;;;7.30;;
665;SDS011;315;48.738;9.126;2024-01-07T11:10:39;9.90;;;8.23;;
665;SDS011;315;48.738;9.126;2024-01-07T11:13:09;8.80;;;7.43;;
665;SDS011;315;48.738;9.126;2024-01-07T11:18:19;9.23;;;6.77;;
665;SDS011;315;48.738;9.126;2024-01-07T11:20:48;12.30;;;8.53;;
665;SDS011;315;48.738;9.126;2024-01-07T11:26:01;12.47;;;8.57;;
665;SDS011;315;48.738;9.126;2024-01-07T11:31:14;11.40;;;8.00;;
665;SDS011;315;48.738;9.126;2024-01-07T11:33:42;9.30;;;8.10;;
665;SDS011;315;48.738;9.126;2024-01-07T11:36:10;8.57;;;6.73;;
665;SDS011;315;48.738;9.126;2024-01-07T11:38:37;12.97;;;8.33;;
665;SDS011;315;48.738;9.126;2024-01-07T11:41:04;11.40;;;8.20;;
665;SDS011;315;48.738;9.126;2024-01-07T11:43:31;11.80;;;7.93;;
665;SDS011;315;48.738;9.126;2024-01-07T11:45:57;9.50;;;7.73;;
665;SDS011;315;48.738;9.126;2024-01-07T11:48:23;10.70;;;7.07;;
665;SDS011;315;48.738;9.126;2024-01-07T11:50:48;9.10;;;7.90;;
665;SDS011;315;48.738;9.126;2024-01-07T11:53:14;9.50;;;8.30;;
665;SDS011;315;48.738;9.126;2024-01-07T11:55:40;11.07;;;7.33;;
665;SDS011;315;48.738;9.126;2024-01-07T11:58:06;9.50;;;7.83;;
665;SDS011;315;48.738;9.126;2024-01-07T12:00:32;16.37;;;8.97;;
665;SDS011;315;48.738;9.126;2024-01-07T12:02:59;15.03;;;9.10;;
665;SDS011;315;48.738;9.126;2024-01-07T12:05:25;21.07;;;11.30;;
665;SDS011;315;48.738;9.126;2024-01-07T12:07:51;9.00;;;7.70;;
665;SDS011;315;48.738;9.126;2024-01-07T12:10:16;9.33;;;8.40;;
665;SDS011;315;48.738;9.126;2024-01-07T12:12:42;9.87;;;8.83;;
665;SDS011;315;48.738;9.126;2024-01-07T12:15:09;13.07;;;9.53;;
665;SDS011;315;48.738;9.126;2024-01-07T12:17:37;11.60;;;8.97;;
665;SDS011;315;48.738;9.126;2024-01-07T12:20:07;9.80;;;8.80;;
665;SDS011;315;48.738;9.126;2024-01-07T12:22:33;6.27;;;5.53;;
665;SDS011;315;48.738;9.126;2024-01-07T12:25:05;11.00;;;8.37;;
665;SDS011;315;48.738;9.126;2024-01-07T12:27:32;12.37;;;10.40;;
665;SDS011;315;48.738;9.126;2024-01-07T12:29:59;8.37;;;6.60;;
665;SDS011;315;48.738;9.126;2024-01-07T12:32:28;10.07;;;6.90;;
665;SDS011;315;48.738;9.126;2024-01-07T12:34:57;8.67;;;7.23;;
665;SDS011;315;48.738;9.126;2024-01-07T12:37:25;12.90;;;8.83;;
665;SDS011;315;48.738;9.126;2024-01-07T12:39:51;11.10;;;8.00;;
665;SDS011;315;48.738;9.126;2024-01-07T12:42:17;11.03;;;8.50;;
665;SDS011;315;48.738;9.126;2024-01-07T12:44:43;10.90;;;8.60;;
665;SDS011;315;48.738;9.126;2024-01-07T12:47:09;12.60;;;9.90;;
665;SDS011;315;48.738;9.126;2024-01-07T12:49:34;14.63;;;9.80;;
665;SDS011;315;48.738;9.126;2024-01-07T12:52:00;11.90;;;9.43;;
665;SDS011;315;48.738;9.126;2024-01-07T12:54:25;9.97;;;8.60;;
665;SDS011;315;48.738;9.126;2024-01-07T12:56:51;14.13;;;9.20;;
665;SDS011;315;48.738;9.126;2024-01-07T12:59:16;12.13;;;9.97;;
665;SDS011;315;48.738;9.126;2024-01-07T13:01:42;17.13;;;10.43;;
665;SDS011;315;48.738;9.126;2024-01-07T13:04:08;12.93;;;8.67;;
665;SDS011;315;48.738;9.126;2024-01-07T13:06:34;10.80;;;9.50;;
665;SDS011;315;48.738;9.126;2024-01-07T13:09:00;12.30;;;9.00;;
665;SDS011;315;48.738;9.126;2024-01-07T13:11:25;11.87;;;10.40;;
665;SDS011;315;48.738;9.126;2024-01-07T13:13:51;12.30;;;9.93;;
665;SDS011;315;48.738;9.126;2024-01-07T13:16:17;12.63;;;10.10;;
665;SDS011;315;48.738;9.126;2024-01-07T13:18:43;11.23;;;9.27;;
665;SDS011;315;48.738;9.126;2024-01-07T13:21:09;13.47;;;10.50;;
665;SDS011;315;48.738;9.126;2024-01-07T13:23:35;11.87;;;9.63;;
665;SDS011;315;48.738;9.126;2024-01-07T13:26:00;15.20;;;9.53;;
665;SDS011;315;48.738;9.126;2024-01-07T13:28:30;11.27;;;9.63;;
665;SDS011;315;48.738;9.126;2024-01-07T13:30:56;13.57;;;10.17;;
665;SDS011;315;48.738;9.126;2024-01-07T13:33:22;15.23;;;10.27;;
665;SDS011;315;48.738;9.126;2024-01-07T13:35:47;13.63;;;10.53;;
665;SDS011;315;48.738;9.126;2024-01-07T13:38:13;15.20;;;11.13;;
665;SDS011;315;48.738;9.126;2024-01-07T13:40:38;14.50;;;10.67;;
665;SDS011;315;48.738;9.126;2024-01-07T13:43:04;13.23;;;10.23;;
665;SDS011;315;48.738;9.126;2024-01-07T13:45:29;12.07;;;10.67;;
665;SDS011;315;48.738;9.126;2024-01-07T13:47:55;14.80;;;11.10;;
665;SDS011;315;48.738;9.126;2024-01-07T13:50:21;17.00;;;10.63;;
665;SDS011;315;48.738;9.126;2024-01-07T13:52:46;14.93;;;11.00;;
665;SDS011;315;48.738;9.126;2024-01-07T13:55:12;11.87;;;10.23;;
665;SDS011;315;48.738;9.126;2024-01-07T13:57:38;14.90;;;10.90;;
665;SDS011;315;48.738;9.126;2024-01-07T14:00:06;14.97;;;12.20;;
665;SDS011;315;48.738;9.126;2024-01-07T14:02:38;12.60;;;9.90;;
665;SDS011;315;48.738;9.126;2024-01-07T14:05:05;13.23;;;10.40;;
665;SDS011;315;48.738;9.126;2024-01-07T14:07:32;13.30;;;10.43;;
665;SDS011;315;48.738;9.126;2024-01-07T14:09:58;12.50;;;10.63;;
665;SDS011;315;48.738;9.126;2024-01-07T14:12:27;13.20;;;11.60;;
665;SDS011;315;48.738;9.126;2024-01-07T14:14:52;19.97;;;12.13;;
665;SDS011;315;48.738;9.126;2024-01-07T14:17:18;14.70;;;13.13;;
665;SDS011;315;48.738;9.126;2024-01-07T14:19:43;14.50;;;12.80;;
665;SDS011;315;48.738;9.126;2024-01-07T14:22:11;16.03;;;12.83;;
665;SDS011;315;48.738;9.126;2024-01-07T14:24:38;15.77;;;12.77;;
665;SDS011;315;48.738;9.126;2024-01-07T14:27:03;19.20;;;13.17;;
665;SDS011;315;48.738;9.126;2024-01-07T14:29:29;18.23;;;11.20;;
665;SDS011;315;48.738;9.126;2024-01-07T14:31:54;12.03;;;10.10;;
665;SDS011;315;48.738;9.126;2024-01-07T14:34:20;12.67;;;10.37;;
665;SDS011;315;48.738;9.126;2024-01-07T14:36:45;16.30;;;11.50;;
665;SDS011;315;48.738;9.126;2024-01-07T14:39:11;13.77;;;11.63;;
665;SDS011;315;48.738;9.126;2024-01-07T14:41:39;16.30;;;12.90;;
665;SDS011;315;48.738;9.126;2024-01-07T14:44:04;14.67;;;12.00;;
665;SDS011;315;48.738;9.126;2024-01-07T14:46:30;16.67;;;12.60;;
665;SDS011;315;48.738;9.126;2024-01-07T14:48:55;17.10;;;12.20;;
665;SDS011;315;48.738;9.126;2024-01-07T14:51:21;17.50;;;11.43;;
665;SDS011;315;48.738;9.126;2024-01-07T14:53:47;15.80;;;12.23;;
665;SDS011;315;48.738;9.126;2024-01-07T14:56:12;19.13;;;13.20;;
665;SDS011;315;48.738;9.126;2024-01-07T14:58:39;20.33;;;13.17;;
665;SDS011;315;48.738;9.126;2024-01-07T15:01:05;16.40;;;11.83;;
665;SDS011;315;48.738;9.126;2024-01-07T15:03:31;15.80;;;12.27;;
665;SDS011;315;48.738;9.126;2024-01-07T15:05:57;17.70;;;14.00;;
665;SDS011;315;48.738;9.126;2024-01-07T15:08:23;17.10;;;12.60;;
665;SDS011;315;48.738;9.126;2024-01-07T15:10:48;16.90;;;12.13;;
665;SDS011;315;48.738;9.126;2024-01-07T15:13:14;16.57;;;12.40;;
665;SDS011;315;48.738;9.126;2024-01-07T15:15:39;17.57;;;13.70;;
665;SDS011;315;48.738;9.126;2024-01-07T15:18:05;19.03;;;12.10;;
665;SDS011;315;48.738;9.126;2024-01-07T15:20:30;15.50;;;11.73;;
665;SDS011;315;48.738;9.126;2024-01-07T15:22:56;15.20;;;11.20;;
665;SDS011;315;48.738;9.126;2024-01-07T15:25:22;15.70;;;13.23;;
665;SDS011;315;48.738;9.126;2024-01-07T15:27:47;20.23;;;13.10;;